createdAt,value
2022-10-30T00:00:42.148Z,8.10
2022-10-30T00:03:13.152Z,8.10
2022-10-30T00:05:45.520Z,7.97
2022-10-30T00:08:14.637Z,8.17
2022-10-30T00:10:43.046Z,8.80
2022-10-30T00:13:12.082Z,9.10
2022-10-30T00:15:41.728Z,9.10
2022-10-30T00:18:09.789Z,9.27
2022-10-30T00:20:37.947Z,8.80
2022-10-30T00:23:05.955Z,10.07
2022-10-30T00:25:35.945Z,8.53
2022-10-30T00:28:04.102Z,8.90
2022-10-30T00:30:32.388Z,9.50
2022-10-30T00:33:02.155Z,9.63
2022-10-30T00:35:30.281Z,9.43
2022-10-30T00:37:58.856Z,9.23
2022-10-30T00:40:27.112Z,9.93
2022-10-30T00:42:55.104Z,10.87
2022-10-30T00:45:23.347Z,9.70
2022-10-30T00:47:55.887Z,10.23
2022-10-30T00:50:28.585Z,10.00
2022-10-30T00:53:02.953Z,9.70
2022-10-30T00:55:36.099Z,9.73
2022-10-30T00:58:07.790Z,9.70
2022-10-30T01:00:39.248Z,9.73
2022-10-30T01:03:07.622Z,9.60
2022-10-30T01:05:37.619Z,9.60
2022-10-30T01:08:06.030Z,10.10
2022-10-30T01:10:34.341Z,9.20
2022-10-30T01:13:03.139Z,9.83
2022-10-30T01:15:34.406Z,10.73
2022-10-30T01:18:20.897Z,10.37
2022-10-30T01:21:16.829Z,9.20
2022-10-30T01:23:57.282Z,10.47
2022-10-30T01:26:35.771Z,9.37
2022-10-30T01:29:27.727Z,10.60
2022-10-30T01:32:13.185Z,10.23
2022-10-30T01:34:47.542Z,9.70
2022-10-30T01:37:23.112Z,10.03
2022-10-30T01:39:51.119Z,8.73
2022-10-30T01:42:45.973Z,9.70
2022-10-30T01:45:23.097Z,9.93
2022-10-30T01:48:10.791Z,9.10
2022-10-30T01:50:45.929Z,9.27
2022-10-30T01:53:26.205Z,8.23
2022-10-30T01:56:04.265Z,9.20
2022-10-30T01:58:37.794Z,10.23
2022-10-30T02:01:06.281Z,8.97
2022-10-30T02:03:34.393Z,8.90
2022-10-30T02:06:02.850Z,8.70
2022-10-30T02:08:32.288Z,9.30
2022-10-30T02:11:01.076Z,9.43
2022-10-30T02:13:29.428Z,9.13
2022-10-30T02:15:58.054Z,9.23
2022-10-30T02:18:26.282Z,9.47
2022-10-30T02:20:55.642Z,9.23
2022-10-30T02:23:23.787Z,9.80
2022-10-30T02:25:52.156Z,9.63
2022-10-30T02:28:20.196Z,8.87
2022-10-30T02:30:48.252Z,8.40
2022-10-30T02:35:49.172Z,8.87
2022-10-30T02:38:18.720Z,8.87
2022-10-30T02:40:46.740Z,8.83
2022-10-30T02:43:14.731Z,9.77
2022-10-30T02:45:42.754Z,9.90
2022-10-30T02:50:43.675Z,8.80
2022-10-30T02:53:11.689Z,9.37
2022-10-30T02:55:41.055Z,9.07
2022-10-30T02:58:09.911Z,8.90
2022-10-30T03:00:37.979Z,9.77
2022-10-30T03:03:05.997Z,8.53
2022-10-30T03:05:34.007Z,9.10
2022-10-30T03:08:02.371Z,9.47
2022-10-30T03:10:30.605Z,8.97
2022-10-30T03:13:00.035Z,9.20
2022-10-30T03:15:28.077Z,9.70
2022-10-30T03:17:56.391Z,10.47
2022-10-30T03:20:24.518Z,10.30
2022-10-30T03:22:52.640Z,9.87
2022-10-30T03:25:23.757Z,9.67
2022-10-30T03:27:52.183Z,9.00
2022-10-30T03:30:21.579Z,9.33
2022-10-30T03:32:49.637Z,10.20
2022-10-30T03:35:17.741Z,9.90
2022-10-30T03:37:45.752Z,9.10
2022-10-30T03:40:13.965Z,9.53
2022-10-30T03:42:42.054Z,9.07
2022-10-30T03:45:10.729Z,9.57
2022-10-30T03:47:42.430Z,11.67
2022-10-30T03:50:10.759Z,9.27
2022-10-30T03:52:38.794Z,9.50
2022-10-30T03:55:07.895Z,8.77
2022-10-30T03:57:38.036Z,9.43
2022-10-30T04:00:07.357Z,8.93
2022-10-30T04:02:35.394Z,9.27
2022-10-30T04:05:05.254Z,9.97
2022-10-30T04:07:33.332Z,10.00
2022-10-30T04:10:01.335Z,9.17
2022-10-30T04:12:29.316Z,9.37
2022-10-30T04:14:57.320Z,9.60
2022-10-30T04:17:25.370Z,9.37
2022-10-30T04:19:53.358Z,9.90
2022-10-30T04:22:22.797Z,9.60
2022-10-30T04:24:50.782Z,10.17
2022-10-30T04:27:19.987Z,9.50
2022-10-30T04:29:48.339Z,9.77
2022-10-30T04:32:16.360Z,10.20
2022-10-30T04:34:44.357Z,9.90
2022-10-30T04:37:12.374Z,9.47
2022-10-30T04:39:45.471Z,10.17
2022-10-30T04:42:14.476Z,9.33
2022-10-30T04:44:42.488Z,9.43
2022-10-30T04:47:10.504Z,9.23
2022-10-30T04:49:38.530Z,9.70
2022-10-30T04:52:06.548Z,9.93
2022-10-30T04:54:34.555Z,8.87
2022-10-30T04:57:04.000Z,9.50
2022-10-30T04:59:32.005Z,8.77
2022-10-30T05:02:00.143Z,10.70
2022-10-30T05:04:28.245Z,9.30
2022-10-30T05:06:56.255Z,10.00
2022-10-30T05:09:24.312Z,8.97
2022-10-30T05:11:54.901Z,9.00
2022-10-30T05:14:30.337Z,9.57
2022-10-30T05:16:58.624Z,9.20
2022-10-30T05:19:26.777Z,9.97
2022-10-30T05:21:54.817Z,9.90
2022-10-30T05:24:22.850Z,9.43
2022-10-30T05:26:51.580Z,9.97
2022-10-30T05:29:19.623Z,9.77
2022-10-30T05:31:49.032Z,9.73
2022-10-30T05:34:17.092Z,9.93
2022-10-30T05:36:45.071Z,10.67
2022-10-30T05:39:13.094Z,13.87
2022-10-30T05:41:41.082Z,13.50
2022-10-30T05:44:09.111Z,12.27
2022-10-30T05:46:37.135Z,11.07
2022-10-30T05:49:06.700Z,11.07
2022-10-30T05:51:38.017Z,10.30
2022-10-30T05:54:08.595Z,10.73
2022-10-30T05:56:36.684Z,9.30
2022-10-30T05:59:04.696Z,9.70
2022-10-30T06:01:32.791Z,9.60
2022-10-30T06:04:00.913Z,9.30
2022-10-30T06:06:30.331Z,9.90
2022-10-30T06:08:58.551Z,10.03
2022-10-30T06:11:26.654Z,9.77
2022-10-30T06:13:54.655Z,9.37
2022-10-30T06:16:22.731Z,9.80
2022-10-30T06:18:50.822Z,9.37
2022-10-30T06:21:18.847Z,10.00
2022-10-30T06:23:49.678Z,9.70
2022-10-30T06:26:17.717Z,9.60
2022-10-30T06:28:45.731Z,10.10
2022-10-30T06:31:13.829Z,8.93
2022-10-30T06:33:41.891Z,10.03
2022-10-30T06:36:10.037Z,8.50
2022-10-30T06:38:38.057Z,10.13
2022-10-30T06:41:07.533Z,10.70
2022-10-30T06:43:35.864Z,10.10
2022-10-30T06:46:03.991Z,9.50
2022-10-30T06:48:32.096Z,9.23
2022-10-30T06:51:02.953Z,8.87
2022-10-30T06:53:31.204Z,9.73
2022-10-30T06:56:00.319Z,9.43
2022-10-30T06:58:30.120Z,9.00
2022-10-30T07:01:00.863Z,8.93
2022-10-30T07:03:28.941Z,9.27
2022-10-30T07:05:56.954Z,9.10
2022-10-30T07:08:25.338Z,9.40
2022-10-30T07:10:53.372Z,8.80
2022-10-30T07:13:21.425Z,9.27
2022-10-30T07:15:51.085Z,8.43
2022-10-30T07:18:19.115Z,9.63
2022-10-30T07:20:47.120Z,9.27
2022-10-30T07:23:15.226Z,8.40
2022-10-30T07:25:43.269Z,8.90
2022-10-30T07:28:11.301Z,8.77
2022-10-30T07:30:39.403Z,8.50
2022-10-30T07:33:11.117Z,8.37
2022-10-30T07:35:39.120Z,15.30
2022-10-30T07:38:08.591Z,12.67
2022-10-30T07:40:36.859Z,11.73
2022-10-30T07:43:05.738Z,11.23
2022-10-30T07:45:34.689Z,10.13
2022-10-30T07:48:03.089Z,10.30
2022-10-30T07:50:33.282Z,11.70
2022-10-30T07:53:01.319Z,11.30
2022-10-30T07:55:29.362Z,11.37
2022-10-30T07:57:57.636Z,10.53
2022-10-30T08:00:25.933Z,11.83
2022-10-30T08:02:58.251Z,11.10
2022-10-30T08:05:28.829Z,10.37
2022-10-30T08:07:59.914Z,10.00
2022-10-30T08:10:28.516Z,10.40
2022-10-30T08:12:56.512Z,8.90
2022-10-30T08:15:24.887Z,9.03
2022-10-30T08:17:53.203Z,7.93
2022-10-30T08:20:24.026Z,7.77
2022-10-30T08:22:53.535Z,8.07
2022-10-30T08:25:24.815Z,7.30
2022-10-30T08:27:54.994Z,7.33
2022-10-30T08:30:23.299Z,7.10
2022-10-30T08:32:51.323Z,7.37
2022-10-30T08:35:20.291Z,6.55
2022-10-30T08:37:48.889Z,7.10
2022-10-30T08:40:17.136Z,7.00
2022-10-30T08:42:51.772Z,7.67
2022-10-30T08:45:20.397Z,6.75
2022-10-30T08:47:48.589Z,7.67
2022-10-30T08:50:16.862Z,7.57
2022-10-30T08:52:44.917Z,7.80
2022-10-30T08:55:12.966Z,7.20
2022-10-30T08:57:40.995Z,7.13
2022-10-30T09:00:11.415Z,6.18
2022-10-30T09:02:40.572Z,6.53
2022-10-30T09:05:09.669Z,6.13
2022-10-30T09:07:37.832Z,5.68
2022-10-30T09:10:07.108Z,6.53
2022-10-30T09:12:35.167Z,6.43
2022-10-30T09:15:03.598Z,5.85
2022-10-30T09:17:33.047Z,5.90
2022-10-30T09:20:01.068Z,5.28
2022-10-30T09:22:29.138Z,5.05
2022-10-30T09:24:57.181Z,5.13
2022-10-30T09:27:25.264Z,5.13
2022-10-30T09:29:53.296Z,5.05
2022-10-30T09:32:21.367Z,4.45
2022-10-30T09:34:50.748Z,4.65
2022-10-30T09:37:19.207Z,4.20
2022-10-30T09:39:47.255Z,4.28
2022-10-30T09:42:46.010Z,4.47
2022-10-30T09:46:06.678Z,5.35
2022-10-30T09:48:51.739Z,4.50
2022-10-30T09:51:50.426Z,3.75
2022-10-30T09:54:30.133Z,4.95
2022-10-30T09:57:03.669Z,5.57
2022-10-30T09:59:43.729Z,4.05
2022-10-30T10:02:25.672Z,4.13
2022-10-30T10:04:59.114Z,3.75
2022-10-30T10:07:32.238Z,4.50
2022-10-30T10:10:04.480Z,5.18
2022-10-30T10:12:42.193Z,4.43
2022-10-30T10:15:18.882Z,4.03
2022-10-30T10:17:47.768Z,4.18
2022-10-30T10:20:20.981Z,4.90
2022-10-30T10:22:51.860Z,4.22
2022-10-30T10:25:21.586Z,4.47
2022-10-30T10:28:00.858Z,4.35
2022-10-30T10:30:37.560Z,4.60
2022-10-30T10:33:31.757Z,4.80
2022-10-30T10:36:23.550Z,5.30
2022-10-30T10:39:22.703Z,5.57
2022-10-30T10:42:00.124Z,4.78
2022-10-30T10:44:42.524Z,4.57
2022-10-30T10:47:38.100Z,4.35
2022-10-30T10:50:19.584Z,5.93
2022-10-30T10:52:54.413Z,4.93
2022-10-30T10:55:27.409Z,4.30
2022-10-30T10:57:59.694Z,4.30
2022-10-30T11:00:32.048Z,4.57
2022-10-30T11:03:06.218Z,5.30
2022-10-30T11:05:38.011Z,4.60
2022-10-30T11:08:13.742Z,4.68
2022-10-30T11:10:43.133Z,4.18
2022-10-30T11:13:13.825Z,4.43
2022-10-30T11:15:51.698Z,5.00
2022-10-30T11:18:19.687Z,4.82
2022-10-30T11:20:58.055Z,4.20
2022-10-30T11:23:34.156Z,4.38
2022-10-30T11:26:04.335Z,5.30
2022-10-30T11:28:47.069Z,4.38
2022-10-30T11:31:19.596Z,4.57
2022-10-30T11:33:48.288Z,4.82
2022-10-30T11:36:17.887Z,4.57
2022-10-30T11:38:51.546Z,4.35
2022-10-30T11:41:21.759Z,4.50
2022-10-30T11:43:50.675Z,4.10
2022-10-30T11:46:24.540Z,3.85
2022-10-30T11:48:55.022Z,3.92
2022-10-30T11:51:36.123Z,4.65
2022-10-30T11:54:05.378Z,5.03
2022-10-30T11:56:36.371Z,4.75
2022-10-30T11:59:06.120Z,4.90
2022-10-30T12:01:39.063Z,5.35
2022-10-30T12:04:23.212Z,5.25
2022-10-30T12:07:07.699Z,4.55
2022-10-30T12:09:43.439Z,4.65
2022-10-30T12:12:19.491Z,4.20
2022-10-30T12:14:47.705Z,4.38
2022-10-30T12:17:16.863Z,4.13
2022-10-30T12:19:50.292Z,4.53
2022-10-30T12:22:31.498Z,3.95
2022-10-30T12:25:01.085Z,4.18
2022-10-30T12:27:33.250Z,4.20
2022-10-30T12:30:10.293Z,4.68
2022-10-30T12:32:48.553Z,4.57
2022-10-30T12:35:28.453Z,4.38
2022-10-30T12:37:58.361Z,4.38
2022-10-30T12:40:31.296Z,5.05
2022-10-30T12:43:06.486Z,4.22
2022-10-30T12:45:41.284Z,5.47
2022-10-30T12:48:17.822Z,4.80
2022-10-30T12:50:57.424Z,4.65
2022-10-30T12:53:33.174Z,4.53
2022-10-30T12:56:05.936Z,4.15
2022-10-30T12:58:42.301Z,4.93
2022-10-30T13:01:26.782Z,4.35
2022-10-30T13:04:01.272Z,4.10
2022-10-30T13:06:33.727Z,4.30
2022-10-30T13:09:13.875Z,4.38
2022-10-30T13:11:49.330Z,4.28
2022-10-30T13:14:22.478Z,3.80
2022-10-30T13:16:53.322Z,4.25
2022-10-30T13:19:21.323Z,4.35
2022-10-30T13:21:56.923Z,4.68
2022-10-30T13:24:38.033Z,4.78
2022-10-30T13:27:11.129Z,5.15
2022-10-30T13:29:47.513Z,4.70
2022-10-30T13:32:31.720Z,4.93
2022-10-30T13:35:07.307Z,5.07
2022-10-30T13:37:41.403Z,5.05
2022-10-30T13:40:17.385Z,5.03
2022-10-30T13:42:58.142Z,4.60
2022-10-30T13:45:48.755Z,4.53
2022-10-30T13:48:28.327Z,5.35
2022-10-30T13:51:15.082Z,4.78
2022-10-30T13:53:47.759Z,4.22
2022-10-30T13:56:18.648Z,5.20
2022-10-30T13:58:50.480Z,6.15
2022-10-30T14:01:24.343Z,5.50
2022-10-30T14:03:58.793Z,5.70
2022-10-30T14:06:37.699Z,6.40
2022-10-30T14:09:15.290Z,5.82
2022-10-30T14:11:43.383Z,5.07
2022-10-30T14:14:28.250Z,6.38
2022-10-30T14:17:14.719Z,6.45
2022-10-30T14:20:22.000Z,6.13
2022-10-30T14:23:08.878Z,6.88
2022-10-30T14:25:37.050Z,5.70
2022-10-30T14:28:05.738Z,7.72
2022-10-30T14:30:36.302Z,6.25
2022-10-30T14:33:05.756Z,6.15
2022-10-30T14:35:39.514Z,5.65
2022-10-30T14:38:25.202Z,4.68
2022-10-30T14:41:21.034Z,5.35
2022-10-30T14:44:00.499Z,5.28
2022-10-30T14:46:34.455Z,5.97
2022-10-30T14:49:12.513Z,6.45
2022-10-30T14:51:46.008Z,8.57
2022-10-30T14:54:24.170Z,11.38
2022-10-30T14:56:54.100Z,10.25
2022-10-30T14:59:25.605Z,7.80
2022-10-30T15:02:00.466Z,9.10
2022-10-30T15:04:40.018Z,8.77
2022-10-30T15:07:16.879Z,9.50
2022-10-30T15:10:00.493Z,7.68
2022-10-30T15:13:06.502Z,6.97
2022-10-30T15:15:35.019Z,7.28
2022-10-30T15:18:06.793Z,7.65
2022-10-30T15:20:39.046Z,6.70
2022-10-30T15:23:13.029Z,7.35
2022-10-30T15:25:48.498Z,7.13
2022-10-30T15:28:19.606Z,7.22
2022-10-30T15:31:01.390Z,6.75
2022-10-30T15:33:30.397Z,6.43
2022-10-30T15:36:00.118Z,6.28
2022-10-30T15:38:28.284Z,6.38
2022-10-30T15:40:59.527Z,6.75
2022-10-30T15:43:32.279Z,6.13
2022-10-30T15:46:00.462Z,5.68
2022-10-30T15:48:31.202Z,6.55
2022-10-30T15:51:03.129Z,6.38
2022-10-30T15:53:39.655Z,5.85
2022-10-30T15:56:15.778Z,6.18
2022-10-30T15:58:51.023Z,5.93
2022-10-30T16:01:26.903Z,6.97
2022-10-30T16:03:55.647Z,5.65
2022-10-30T16:06:27.612Z,5.45
2022-10-30T16:08:55.798Z,6.35
2022-10-30T16:11:25.605Z,5.57
2022-10-30T16:13:54.473Z,5.53
2022-10-30T16:16:27.351Z,5.63
2022-10-30T16:19:03.840Z,5.63
2022-10-30T16:21:35.117Z,5.40
2022-10-30T16:24:05.225Z,5.35
2022-10-30T16:26:36.203Z,5.50
2022-10-30T16:29:17.002Z,5.63
2022-10-30T16:31:49.719Z,6.05
2022-10-30T16:34:23.726Z,6.07
2022-10-30T16:36:54.024Z,5.90
2022-10-30T16:39:23.414Z,5.93
2022-10-30T16:41:51.437Z,5.80
2022-10-30T16:44:26.239Z,5.88
2022-10-30T16:46:56.288Z,6.28
2022-10-30T16:49:26.880Z,5.85
2022-10-30T16:52:01.117Z,6.50
2022-10-30T16:54:32.370Z,7.38
2022-10-30T16:57:02.878Z,6.57
2022-10-30T16:59:37.039Z,7.38
2022-10-30T17:02:14.193Z,6.07
2022-10-30T17:04:45.782Z,5.10
2022-10-30T17:07:19.950Z,5.43
2022-10-30T17:09:49.780Z,5.13
2022-10-30T17:12:21.847Z,5.60
2022-10-30T17:15:02.846Z,5.30
2022-10-30T17:17:33.245Z,5.70
2022-10-30T17:20:03.447Z,6.13
2022-10-30T17:22:32.881Z,4.82
2022-10-30T17:25:01.433Z,5.00
2022-10-30T17:27:46.576Z,4.65
2022-10-30T17:30:45.139Z,4.80
2022-10-30T17:33:36.154Z,4.88
2022-10-30T17:36:05.399Z,4.43
2022-10-30T17:38:34.908Z,5.13
2022-10-30T17:41:03.552Z,5.25
2022-10-30T17:43:34.424Z,4.72
2022-10-30T17:46:02.379Z,5.07
2022-10-30T17:48:31.073Z,4.70
2022-10-30T17:50:59.047Z,6.22
2022-10-30T17:53:27.335Z,4.90
2022-10-30T17:56:00.805Z,4.45
2022-10-30T17:58:30.803Z,4.37
2022-10-30T18:00:59.206Z,5.00
2022-10-30T18:03:27.274Z,4.47
2022-10-30T18:05:55.873Z,4.40
2022-10-30T18:08:24.555Z,4.27
2022-10-30T18:10:52.566Z,4.60
2022-10-30T18:13:21.903Z,4.40
2022-10-30T18:15:54.714Z,4.93
2022-10-30T18:18:22.694Z,4.55
2022-10-30T18:20:50.711Z,5.40
2022-10-30T18:26:15.343Z,5.23
2022-10-30T18:28:44.724Z,4.90
2022-10-30T18:31:13.932Z,6.10
2022-10-30T18:33:42.412Z,5.57
2022-10-30T18:36:13.864Z,5.90
2022-10-30T18:38:41.913Z,5.07
2022-10-30T18:41:14.716Z,4.77
2022-10-30T18:43:46.782Z,4.80
2022-10-30T18:46:16.532Z,4.93
2022-10-30T18:48:45.370Z,5.13
2022-10-30T18:51:17.484Z,4.77
2022-10-30T18:53:51.476Z,5.07
2022-10-30T18:56:20.576Z,4.70
2022-10-30T18:58:53.456Z,4.53
2022-10-30T19:01:24.770Z,5.10
2022-10-30T19:03:52.798Z,4.57
2022-10-30T19:06:22.446Z,15.83
2022-10-30T19:08:50.818Z,16.40
2022-10-30T19:11:24.518Z,9.53
2022-10-30T19:13:55.486Z,7.27
2022-10-30T19:16:25.343Z,6.70
2022-10-30T19:18:53.827Z,5.57
2022-10-30T19:21:23.195Z,7.33
2022-10-30T19:23:51.444Z,5.87
2022-10-30T19:26:19.444Z,4.90
2022-10-30T19:28:47.458Z,4.57
2022-10-30T19:31:18.601Z,5.23
2022-10-30T19:33:51.364Z,4.80
2022-10-30T19:36:30.595Z,5.17
2022-10-30T19:38:58.956Z,4.63
2022-10-30T19:44:01.687Z,5.43
2022-10-30T19:46:30.994Z,4.73
2022-10-30T19:48:59.960Z,5.67
2022-10-30T19:51:28.895Z,5.10
2022-10-30T19:53:57.079Z,4.87
2022-10-30T19:56:25.159Z,4.63
2022-10-30T19:58:53.143Z,5.17
2022-10-30T20:01:21.242Z,5.60
2022-10-30T20:03:50.841Z,4.87
2022-10-30T20:06:19.339Z,4.27
2022-10-30T20:08:47.386Z,4.27
2022-10-30T20:11:15.437Z,4.60
2022-10-30T20:13:43.584Z,4.20
2022-10-30T20:16:12.394Z,4.20
2022-10-30T20:18:40.485Z,3.80
2022-10-30T20:21:13.357Z,4.30
2022-10-30T20:23:41.505Z,4.03
2022-10-30T20:26:22.798Z,4.30
2022-10-30T20:28:51.108Z,4.80
2022-10-30T20:31:19.281Z,4.67
2022-10-30T20:33:47.596Z,4.27
2022-10-30T20:36:17.207Z,4.80
2022-10-30T20:38:45.290Z,4.67
2022-10-30T20:41:21.920Z,4.70
2022-10-30T20:43:50.193Z,4.23
2022-10-30T20:46:18.551Z,6.07
2022-10-30T20:48:46.588Z,4.60
2022-10-30T20:51:16.229Z,3.43
2022-10-30T20:53:44.573Z,4.00
2022-10-30T20:56:12.851Z,3.80
2022-10-30T20:58:41.001Z,4.47
2022-10-30T21:01:09.363Z,4.70
2022-10-30T21:03:37.514Z,3.77
2022-10-30T21:06:06.228Z,4.03
2022-10-30T21:08:35.704Z,5.63
2022-10-30T21:11:05.502Z,4.13
2022-10-30T21:13:35.036Z,3.80
2022-10-30T21:16:04.423Z,4.70
2022-10-30T21:18:32.494Z,4.10
2022-10-30T21:21:02.479Z,4.73
2022-10-30T21:23:30.534Z,4.30
2022-10-30T21:26:03.724Z,5.00
2022-10-30T21:28:31.970Z,6.40
2022-10-30T21:31:03.245Z,3.90
2022-10-30T21:33:32.291Z,4.83
2022-10-30T21:36:11.760Z,4.23
2022-10-30T21:38:42.820Z,4.20
2022-10-30T21:41:14.412Z,3.60
2022-10-30T21:43:42.505Z,3.80
2022-10-30T21:46:12.485Z,4.03
2022-10-30T21:48:40.820Z,3.70
2022-10-30T21:51:10.504Z,3.70
2022-10-30T21:53:39.160Z,3.83
2022-10-30T21:56:09.774Z,3.17
2022-10-30T21:58:39.247Z,4.27
2022-10-30T22:01:08.273Z,4.07
2022-10-30T22:03:36.368Z,3.90
2022-10-30T22:06:08.518Z,4.00
2022-10-30T22:08:36.832Z,3.90
2022-10-30T22:11:06.176Z,4.07
2022-10-30T22:13:34.203Z,3.63
2022-10-30T22:16:05.529Z,4.03
2022-10-30T22:18:33.975Z,3.63
2022-10-30T22:21:03.308Z,5.57
2022-10-30T22:23:32.097Z,4.37
2022-10-30T22:26:01.907Z,3.70
2022-10-30T22:28:31.216Z,3.87
2022-10-30T22:31:04.976Z,4.63
2022-10-30T22:33:33.784Z,4.37
2022-10-30T22:36:06.637Z,3.50
2022-10-30T22:38:35.478Z,3.73
2022-10-30T22:41:11.815Z,3.80
2022-10-30T22:43:39.932Z,3.90
2022-10-30T22:46:10.529Z,3.40
2022-10-30T22:48:39.156Z,3.50
2022-10-30T22:51:13.483Z,3.60
2022-10-30T22:53:45.115Z,2.83
2022-10-30T22:56:15.930Z,3.93
2022-10-30T22:58:44.266Z,2.77
2022-10-30T23:01:16.100Z,2.70
2022-10-30T23:03:44.721Z,2.73
2022-10-30T23:06:13.946Z,3.07
2022-10-30T23:08:42.363Z,4.13
2022-10-30T23:11:10.527Z,2.87
2022-10-30T23:13:39.079Z,2.87
2022-10-30T23:16:09.684Z,2.60
2022-10-30T23:18:39.132Z,3.07
2022-10-30T23:21:09.739Z,2.53
2022-10-30T23:23:38.631Z,2.53
2022-10-30T23:26:08.764Z,2.90
2022-10-30T23:28:36.894Z,3.07
2022-10-30T23:31:06.049Z,3.50
2022-10-30T23:33:34.118Z,4.13
2022-10-30T23:36:05.737Z,4.43
2022-10-30T23:38:33.997Z,3.73
2022-10-30T23:41:02.145Z,3.80
2022-10-30T23:43:30.217Z,5.07
2022-10-30T23:45:58.264Z,6.83
2022-10-30T23:48:26.371Z,7.40
2022-10-30T23:50:54.432Z,7.60
2022-10-30T23:53:23.857Z,7.37
2022-10-30T23:55:53.042Z,7.27
2022-10-30T23:58:21.097Z,6.23
